createdAt,value
2023-01-07T00:02:15.992Z,1.70
2023-01-07T00:05:17.282Z,2.08
2023-01-07T00:08:18.512Z,2.10
2023-01-07T00:11:23.927Z,1.40
2023-01-07T00:14:25.228Z,1.65
2023-01-07T00:17:26.455Z,1.48
2023-01-07T00:20:27.699Z,1.15
2023-01-07T00:23:29.636Z,1.73
2023-01-07T00:26:32.576Z,1.40
2023-01-07T00:29:33.854Z,1.52
2023-01-07T00:32:51.134Z,1.58
2023-01-07T00:35:58.215Z,1.70
2023-01-07T00:39:00.978Z,1.80
2023-01-07T00:42:21.148Z,1.35
2023-01-07T00:45:23.048Z,2.28
2023-01-07T00:48:24.321Z,1.30
2023-01-07T00:51:25.706Z,1.30
2023-01-07T00:54:26.990Z,1.65
2023-01-07T00:57:28.219Z,2.17
2023-01-07T01:00:29.799Z,2.33
2023-01-07T01:03:31.803Z,1.95
2023-01-07T01:06:33.078Z,1.80
2023-01-07T01:09:34.397Z,1.70
2023-01-07T01:12:35.802Z,1.48
2023-01-07T01:15:37.104Z,1.73
2023-01-07T01:18:38.777Z,2.08
2023-01-07T01:21:40.511Z,2.00
2023-01-07T01:24:41.744Z,1.98
2023-01-07T01:27:43.959Z,1.90
2023-01-07T01:30:45.266Z,2.05
2023-01-07T01:33:46.511Z,1.80
2023-01-07T01:36:47.748Z,2.10
2023-01-07T01:39:48.967Z,2.25
2023-01-07T01:42:50.212Z,1.55
2023-01-07T01:45:51.484Z,1.67
2023-01-07T01:49:01.743Z,1.40
2023-01-07T01:52:05.928Z,1.52
2023-01-07T01:55:08.488Z,1.63
2023-01-07T01:58:13.446Z,1.60
2023-01-07T02:01:15.031Z,1.30
2023-01-07T02:04:18.513Z,1.23
2023-01-07T02:07:19.808Z,1.50
2023-01-07T02:10:22.430Z,1.60
2023-01-07T02:13:29.308Z,1.60
2023-01-07T02:16:38.266Z,1.58
2023-01-07T02:19:53.467Z,1.63
2023-01-07T02:22:54.685Z,1.70
2023-01-07T02:26:02.227Z,1.42
2023-01-07T02:29:18.914Z,1.10
2023-01-07T02:32:20.210Z,1.30
2023-01-07T02:35:40.559Z,1.63
2023-01-07T02:38:58.881Z,1.23
2023-01-07T02:42:06.851Z,1.50
2023-01-07T02:45:12.068Z,1.52
2023-01-07T02:48:14.860Z,1.50
2023-01-07T02:51:16.098Z,1.38
2023-01-07T02:54:19.956Z,1.48
2023-01-07T02:57:21.217Z,1.40
2023-01-07T03:00:37.901Z,1.42
2023-01-07T03:04:05.906Z,1.33
2023-01-07T03:07:10.035Z,1.98
2023-01-07T03:10:11.664Z,1.95
2023-01-07T03:13:31.775Z,1.60
2023-01-07T03:16:41.590Z,1.40
2023-01-07T03:19:44.936Z,1.42
2023-01-07T03:22:46.723Z,1.50
2023-01-07T03:25:50.286Z,1.23
2023-01-07T03:28:52.275Z,1.20
2023-01-07T03:31:57.452Z,1.48
2023-01-07T03:34:58.847Z,1.08
2023-01-07T03:38:01.044Z,2.03
2023-01-07T03:41:02.492Z,1.10
2023-01-07T03:44:03.770Z,1.92
2023-01-07T03:47:05.303Z,1.10
2023-01-07T03:50:06.964Z,1.08
2023-01-07T03:53:08.300Z,1.10
2023-01-07T03:56:09.570Z,1.23
2023-01-07T03:59:10.881Z,1.30
2023-01-07T04:02:12.279Z,1.30
2023-01-07T04:05:13.653Z,1.10
2023-01-07T04:08:14.901Z,1.23
2023-01-07T04:11:16.194Z,1.10
2023-01-07T04:14:17.553Z,1.20
2023-01-07T04:17:18.908Z,1.23
2023-01-07T04:20:20.140Z,1.30
2023-01-07T04:23:21.419Z,1.73
2023-01-07T04:26:22.814Z,1.20
2023-01-07T04:29:24.085Z,1.52
2023-01-07T04:32:25.382Z,1.60
2023-01-07T04:35:26.625Z,1.92
2023-01-07T04:38:27.897Z,2.33
2023-01-07T04:41:29.121Z,1.50
2023-01-07T04:44:30.402Z,1.70
2023-01-07T04:47:31.668Z,2.10
2023-01-07T04:50:32.957Z,1.70
2023-01-07T04:53:34.210Z,1.20
2023-01-07T04:56:35.586Z,2.17
2023-01-07T04:59:36.873Z,1.65
2023-01-07T05:02:38.170Z,1.92
2023-01-07T05:05:39.510Z,1.52
2023-01-07T05:08:40.790Z,1.50
2023-01-07T05:11:42.155Z,1.55
2023-01-07T05:14:43.390Z,1.52
2023-01-07T05:17:44.745Z,1.70
2023-01-07T05:20:47.222Z,2.05
2023-01-07T05:23:48.472Z,1.75
2023-01-07T05:26:49.754Z,1.85
2023-01-07T05:29:51.025Z,1.83
2023-01-07T05:32:52.229Z,1.95
2023-01-07T05:35:53.526Z,1.77
2023-01-07T05:38:55.659Z,1.50
2023-01-07T05:41:56.931Z,1.80
2023-01-07T05:44:58.189Z,1.80
2023-01-07T05:47:59.462Z,1.90
2023-01-07T05:51:00.868Z,1.95
2023-01-07T05:54:02.160Z,2.33
2023-01-07T05:57:03.426Z,1.77
2023-01-07T06:00:04.988Z,1.67
2023-01-07T06:03:06.397Z,1.52
2023-01-07T06:06:07.673Z,1.38
2023-01-07T06:09:08.933Z,1.83
2023-01-07T06:12:10.241Z,1.67
2023-01-07T06:15:11.655Z,1.73
2023-01-07T06:18:12.995Z,1.60
2023-01-07T06:21:16.168Z,1.45
2023-01-07T06:24:17.466Z,1.42
2023-01-07T06:27:18.928Z,1.77
2023-01-07T06:30:20.246Z,1.98
2023-01-07T06:33:21.514Z,1.70
2023-01-07T06:36:23.305Z,1.27
2023-01-07T06:39:24.609Z,1.55
2023-01-07T06:42:25.933Z,1.67
2023-01-07T06:45:27.318Z,1.67
2023-01-07T06:48:28.818Z,1.48
2023-01-07T06:51:30.222Z,1.15
2023-01-07T06:54:31.460Z,1.40
2023-01-07T06:57:32.790Z,3.10
2023-01-07T07:00:34.027Z,2.05
2023-01-07T07:03:35.372Z,1.55
2023-01-07T07:06:36.652Z,2.13
2023-01-07T07:09:37.935Z,1.48
2023-01-07T07:12:39.627Z,2.03
2023-01-07T07:15:41.302Z,1.00
2023-01-07T07:18:42.602Z,1.83
2023-01-07T07:21:43.881Z,1.05
2023-01-07T07:24:45.198Z,1.25
2023-01-07T07:27:46.926Z,1.20
2023-01-07T07:30:48.511Z,1.67
2023-01-07T07:33:49.851Z,1.10
2023-01-07T07:36:51.112Z,0.90
2023-01-07T07:39:52.371Z,0.85
2023-01-07T07:43:11.525Z,0.80
2023-01-07T07:46:14.433Z,1.17
2023-01-07T07:49:15.766Z,1.33
2023-01-07T07:52:17.475Z,1.30
2023-01-07T07:55:19.990Z,1.40
2023-01-07T07:58:23.046Z,1.40
2023-01-07T08:01:24.519Z,0.93
2023-01-07T08:04:28.691Z,1.30
2023-01-07T08:07:32.514Z,1.42
2023-01-07T08:10:35.463Z,1.70
2023-01-07T08:13:36.739Z,2.35
2023-01-07T08:16:38.091Z,1.20
2023-01-07T08:19:39.336Z,1.67
2023-01-07T08:22:40.604Z,1.52
2023-01-07T08:25:41.973Z,1.13
2023-01-07T08:28:45.113Z,1.25
2023-01-07T08:34:48.932Z,1.20
2023-01-07T08:37:50.268Z,1.52
2023-01-07T08:40:51.557Z,1.20
2023-01-07T08:43:53.005Z,0.80
2023-01-07T08:46:54.790Z,1.42
2023-01-07T08:49:56.193Z,1.13
2023-01-07T08:52:57.522Z,1.00
2023-01-07T08:55:58.854Z,0.80
2023-01-07T08:59:00.279Z,0.82
2023-01-07T09:02:01.698Z,1.23
2023-01-07T09:05:03.121Z,0.93
2023-01-07T09:08:04.512Z,0.90
2023-01-07T09:11:05.902Z,1.00
2023-01-07T09:14:07.198Z,1.02
2023-01-07T09:17:08.602Z,1.13
2023-01-07T09:20:10.273Z,1.00
2023-01-07T09:23:11.593Z,1.50
2023-01-07T09:26:12.937Z,1.00
2023-01-07T09:29:14.187Z,1.25
2023-01-07T09:32:15.766Z,0.93
2023-01-07T09:35:17.121Z,1.08
2023-01-07T09:38:18.956Z,1.00
2023-01-07T09:41:38.706Z,0.93
2023-01-07T09:44:58.744Z,1.48
2023-01-07T09:48:00.963Z,1.23
2023-01-07T09:51:07.344Z,1.00
2023-01-07T09:54:17.328Z,0.90
2023-01-07T09:57:18.782Z,0.80
2023-01-07T10:00:22.271Z,0.60
2023-01-07T10:03:30.011Z,0.80
2023-01-07T10:06:51.297Z,0.70
2023-01-07T10:10:00.612Z,0.60
2023-01-07T10:13:17.298Z,0.98
2023-01-07T10:16:21.498Z,0.80
2023-01-07T10:19:27.017Z,0.85
2023-01-07T10:22:37.061Z,0.60
2023-01-07T10:25:58.626Z,0.85
2023-01-07T10:29:02.824Z,1.00
2023-01-07T10:32:08.045Z,0.80
2023-01-07T10:35:19.054Z,0.93
2023-01-07T10:38:20.818Z,0.80
2023-01-07T10:41:25.023Z,0.77
2023-01-07T10:44:26.248Z,0.68
2023-01-07T10:47:39.587Z,0.90
2023-01-07T10:51:07.157Z,0.70
2023-01-07T10:54:11.170Z,1.02
2023-01-07T10:57:18.510Z,1.13
2023-01-07T11:00:19.952Z,1.90
2023-01-07T11:03:22.115Z,1.60
2023-01-07T11:06:27.969Z,1.35
2023-01-07T11:09:41.427Z,1.13
2023-01-07T11:12:42.678Z,1.70
2023-01-07T11:16:08.020Z,1.40
2023-01-07T11:19:10.874Z,0.70
2023-01-07T11:22:28.004Z,2.13
2023-01-07T11:25:29.547Z,0.77
2023-01-07T11:28:31.120Z,0.65
2023-01-07T11:31:44.487Z,0.80
2023-01-07T11:35:09.027Z,1.08
2023-01-07T11:38:30.422Z,1.30
2023-01-07T11:41:31.718Z,0.73
2023-01-07T11:44:32.995Z,0.90
2023-01-07T11:47:34.339Z,0.73
2023-01-07T11:50:35.711Z,0.80
2023-01-07T11:53:38.297Z,0.63
2023-01-07T11:56:39.562Z,0.50
2023-01-07T11:59:40.815Z,0.70
2023-01-07T12:02:42.195Z,0.60
2023-01-07T12:05:44.962Z,0.70
2023-01-07T12:08:55.254Z,0.55
2023-01-07T12:11:57.549Z,1.08
2023-01-07T12:15:00.413Z,0.60
2023-01-07T12:18:07.606Z,0.68
2023-01-07T12:21:27.363Z,0.80
2023-01-07T12:24:40.449Z,0.70
2023-01-07T12:27:49.791Z,1.65
2023-01-07T12:30:51.555Z,0.70
2023-01-07T12:34:05.335Z,0.82
2023-01-07T12:37:27.068Z,0.70
2023-01-07T12:40:32.292Z,0.73
2023-01-07T12:43:35.288Z,2.00
2023-01-07T12:46:45.723Z,0.80
2023-01-07T12:49:46.947Z,0.70
2023-01-07T12:53:03.618Z,0.77
2023-01-07T12:56:16.979Z,0.70
2023-01-07T12:59:45.835Z,1.08
2023-01-07T13:05:54.316Z,1.00
2023-01-07T13:09:03.506Z,0.63
2023-01-07T13:12:42.177Z,1.30
2023-01-07T13:15:44.176Z,0.80
2023-01-07T13:18:45.645Z,0.50
2023-01-07T13:21:48.278Z,0.70
2023-01-07T13:25:03.744Z,1.20
2023-01-07T13:28:19.780Z,1.10
2023-01-07T13:31:27.039Z,0.60
2023-01-07T13:34:38.306Z,0.75
2023-01-07T13:37:46.935Z,0.70
2023-01-07T13:41:02.452Z,0.75
2023-01-07T13:44:22.865Z,0.68
2023-01-07T13:47:25.871Z,0.80
2023-01-07T13:50:35.599Z,0.80
2023-01-07T13:53:37.943Z,0.80
2023-01-07T13:56:39.711Z,1.00
2023-01-07T13:59:47.901Z,0.68
2023-01-07T14:02:58.381Z,1.40
2023-01-07T14:06:18.452Z,0.93
2023-01-07T14:09:26.874Z,0.80
2023-01-07T14:12:48.758Z,0.90
2023-01-07T14:16:06.591Z,0.80
2023-01-07T14:19:07.918Z,0.70
2023-01-07T14:22:27.585Z,0.80
2023-01-07T14:25:37.841Z,0.98
2023-01-07T14:28:58.022Z,0.80
2023-01-07T14:32:22.458Z,1.15
2023-01-07T14:35:26.991Z,1.00
2023-01-07T14:38:31.139Z,1.35
2023-01-07T14:41:32.446Z,0.80
2023-01-07T14:44:33.826Z,0.98
2023-01-07T14:47:41.080Z,1.10
2023-01-07T14:50:47.146Z,1.00
2023-01-07T14:54:06.030Z,0.90
2023-01-07T14:57:22.617Z,0.95
2023-01-07T15:00:26.794Z,1.67
2023-01-07T15:03:39.533Z,1.00
2023-01-07T15:06:41.860Z,1.48
2023-01-07T15:10:04.509Z,1.00
2023-01-07T15:13:25.750Z,1.85
2023-01-07T15:16:28.308Z,1.27
2023-01-07T15:19:29.763Z,1.77
2023-01-07T15:22:34.163Z,1.95
2023-01-07T15:28:36.755Z,1.35
2023-01-07T15:31:44.167Z,1.83
2023-01-07T15:34:45.535Z,2.05
2023-01-07T15:37:48.442Z,1.92
2023-01-07T15:40:49.810Z,1.75
2023-01-07T15:43:51.473Z,2.28
2023-01-07T15:46:52.927Z,1.80
2023-01-07T15:49:54.380Z,1.80
2023-01-07T15:53:05.871Z,1.90
2023-01-07T15:56:10.050Z,2.05
2023-01-07T15:59:13.999Z,1.30
2023-01-07T16:02:27.563Z,1.83
2023-01-07T16:05:29.073Z,2.10
2023-01-07T16:08:31.960Z,1.75
2023-01-07T16:11:33.339Z,2.42
2023-01-07T16:14:35.673Z,1.27
2023-01-07T16:17:48.819Z,1.67
2023-01-07T16:21:01.894Z,1.85
2023-01-07T16:24:03.458Z,1.80
2023-01-07T16:27:05.601Z,1.75
2023-01-07T16:30:11.415Z,1.80
2023-01-07T16:33:15.222Z,2.08
2023-01-07T16:36:18.399Z,1.63
2023-01-07T16:39:25.365Z,2.33
2023-01-07T16:42:27.453Z,1.90
2023-01-07T16:45:30.065Z,2.22
2023-01-07T16:48:31.441Z,2.90
2023-01-07T16:51:44.077Z,3.85
2023-01-07T16:54:49.321Z,4.57
2023-01-07T16:57:50.697Z,2.80
2023-01-07T17:00:53.467Z,3.25
2023-01-07T17:03:56.450Z,2.20
2023-01-07T17:06:59.399Z,2.35
2023-01-07T17:10:00.688Z,2.67
2023-01-07T17:13:06.499Z,3.00
2023-01-07T17:16:21.950Z,2.63
2023-01-07T17:19:24.938Z,2.72
2023-01-07T17:22:29.342Z,2.20
2023-01-07T17:25:31.268Z,2.47
2023-01-07T17:28:43.437Z,2.22
2023-01-07T17:31:45.275Z,2.00
2023-01-07T17:34:46.595Z,1.77
2023-01-07T17:37:48.525Z,2.42
2023-01-07T17:40:50.060Z,2.17
2023-01-07T17:43:51.346Z,1.83
2023-01-07T17:46:52.666Z,4.68
2023-01-07T17:49:53.979Z,12.25
2023-01-07T17:52:55.308Z,6.07
2023-01-07T17:55:56.763Z,2.72
2023-01-07T17:58:58.155Z,2.83
2023-01-07T18:02:00.543Z,3.25
2023-01-07T18:05:01.915Z,2.88
2023-01-07T18:08:03.188Z,4.43
2023-01-07T18:11:23.318Z,3.70
2023-01-07T18:14:24.747Z,3.78
2023-01-07T18:17:26.011Z,3.08
2023-01-07T18:20:27.329Z,3.22
2023-01-07T18:23:28.713Z,3.63
2023-01-07T18:26:30.137Z,2.80
2023-01-07T18:29:31.409Z,2.55
2023-01-07T18:32:32.663Z,2.13
2023-01-07T18:35:34.350Z,2.50
2023-01-07T18:38:35.634Z,2.60
2023-01-07T18:41:38.792Z,2.42
2023-01-07T18:44:40.102Z,3.17
2023-01-07T18:47:42.935Z,2.90
2023-01-07T18:50:45.565Z,3.13
2023-01-07T18:53:46.932Z,2.08
2023-01-07T18:56:48.341Z,2.28
2023-01-07T18:59:49.726Z,2.83
2023-01-07T19:02:51.031Z,2.67
2023-01-07T19:05:52.291Z,2.90
2023-01-07T19:08:55.323Z,2.60
2023-01-07T19:11:56.642Z,2.40
2023-01-07T19:14:57.928Z,3.08
2023-01-07T19:17:59.276Z,2.50
2023-01-07T19:21:04.406Z,2.15
2023-01-07T19:24:05.897Z,2.80
2023-01-07T19:27:07.512Z,2.97
2023-01-07T19:30:09.092Z,2.75
2023-01-07T19:33:10.384Z,3.55
2023-01-07T19:36:12.710Z,2.33
2023-01-07T19:39:18.006Z,2.22
2023-01-07T19:42:19.262Z,2.78
2023-01-07T19:45:20.586Z,2.53
2023-01-07T19:48:22.509Z,3.08
2023-01-07T19:51:23.801Z,2.40
2023-01-07T19:54:25.081Z,2.40
2023-01-07T19:57:26.415Z,2.45
2023-01-07T20:00:27.739Z,2.00
2023-01-07T20:03:30.441Z,2.25
2023-01-07T20:06:35.372Z,2.75
2023-01-07T20:09:36.686Z,2.53
2023-01-07T20:12:38.028Z,2.47
2023-01-07T20:15:39.376Z,2.67
2023-01-07T20:18:42.050Z,2.40
2023-01-07T20:21:43.400Z,1.58
2023-01-07T20:24:46.623Z,2.40
2023-01-07T20:27:47.873Z,2.22
2023-01-07T20:30:49.175Z,2.10
2023-01-07T20:33:51.228Z,1.58
2023-01-07T20:36:52.577Z,1.73
2023-01-07T20:39:54.351Z,2.00
2023-01-07T20:42:55.613Z,1.90
2023-01-07T20:46:04.354Z,1.95
2023-01-07T20:49:05.708Z,2.47
2023-01-07T20:52:07.078Z,1.70
2023-01-07T20:55:08.575Z,1.60
2023-01-07T20:58:09.871Z,2.38
2023-01-07T21:01:12.664Z,2.45
2023-01-07T21:04:14.065Z,1.38
2023-01-07T21:07:15.368Z,1.73
2023-01-07T21:10:17.939Z,1.73
2023-01-07T21:13:19.595Z,2.10
2023-01-07T21:16:20.954Z,2.92
2023-01-07T21:19:22.325Z,1.58
2023-01-07T21:22:23.626Z,1.95
2023-01-07T21:25:24.982Z,1.95
2023-01-07T21:28:26.574Z,2.38
2023-01-07T21:31:27.920Z,2.47
2023-01-07T21:34:29.247Z,2.60
2023-01-07T21:37:30.511Z,2.35
2023-01-07T21:40:31.883Z,1.90
2023-01-07T21:43:33.161Z,2.45
2023-01-07T21:46:34.469Z,2.58
2023-01-07T21:49:35.791Z,1.98
2023-01-07T21:52:37.189Z,1.98
2023-01-07T21:55:39.510Z,2.20
2023-01-07T21:58:41.245Z,2.15
2023-01-07T22:01:42.593Z,2.55
2023-01-07T22:04:46.048Z,2.30
2023-01-07T22:07:47.315Z,1.90
2023-01-07T22:10:48.743Z,2.13
2023-01-07T22:13:50.971Z,2.03
2023-01-07T22:16:52.342Z,2.70
2023-01-07T22:19:53.616Z,2.78
2023-01-07T22:22:54.909Z,2.33
2023-01-07T22:26:01.285Z,2.83
2023-01-07T22:29:06.293Z,2.33
2023-01-07T22:32:07.595Z,2.33
2023-01-07T22:35:09.018Z,1.85
2023-01-07T22:38:11.622Z,2.30
2023-01-07T22:41:12.901Z,2.15
2023-01-07T22:44:16.189Z,1.95
2023-01-07T22:47:19.844Z,2.20
2023-01-07T22:50:21.183Z,2.00
2023-01-07T22:53:22.457Z,1.63
2023-01-07T22:56:24.006Z,2.15
2023-01-07T22:59:25.354Z,2.25
2023-01-07T23:02:27.079Z,2.40
2023-01-07T23:05:28.362Z,2.67
2023-01-07T23:08:29.699Z,2.65
2023-01-07T23:11:50.915Z,2.38
2023-01-07T23:14:52.338Z,2.63
2023-01-07T23:17:54.208Z,3.35
2023-01-07T23:20:55.655Z,2.53
2023-01-07T23:23:56.958Z,2.95
2023-01-07T23:26:58.334Z,3.85
2023-01-07T23:29:59.598Z,3.17
2023-01-07T23:33:00.834Z,2.80
2023-01-07T23:36:06.375Z,2.97
2023-01-07T23:39:07.856Z,2.53
2023-01-07T23:42:09.145Z,2.63
2023-01-07T23:45:10.675Z,2.28
2023-01-07T23:48:11.949Z,2.60
2023-01-07T23:51:14.771Z,3.15
2023-01-07T23:54:16.058Z,3.00
2023-01-07T23:57:17.334Z,3.13
